Port Vincent, Louisiana
Current Conditions -  °F | °C
As of 4:53 PM on Thursday 23 Oct 2014 (Local Time) from KBTR Reporting Station
Clear Clear  
Wind Chill: 70°   Ceiling: Unl
Heat Index: 70°   Visibility: 10mi
Dew Point: 50°   Wind: 0mph
Humidity: 49%   Direction: NA
Pressure: 30.05"   Gusts: NA
Location:  30.421°N, 90.9008°W
Report Text: KBTR 232153Z 00000KT 10SM CLR 21/10 A3005 RMK AO2 SLP175 T02110100 $
Loading
Personal Weather Stations






























Interactive Weather Map
Tropical Storm Tracking
New forecast layout! Learn more

10-Day Weather Forecast

Advertisements
Track Severe Weather on mobile